Time;durP1;ratioP1;P1;durP2;ratioP2;P2;SDS_P1;SDS_P2;PMS_P1;PMS_P2;Temp;Humidity;BMP_temperature;BMP_pressure;BME280_temperature;BME280_humidity;BME280_pressure;Samples;Min_cycle;Max_cycle;Signal;HPM_P1;HPM_P2
2022/05/28 00:00:05;;;;;;;;;;;15.70;93.20;;;;;;4953852;28;19928;-69
2022/05/28 00:02:32;;;;;;;;;;;15.80;93.10;;;;;;4953204;28;20000;-69
2022/05/28 00:04:59;;;;;;;;;;;15.80;93.00;;;;;;4953851;28;20019;-68
2022/05/28 00:07:25;;;;;;;;;;;15.80;92.90;;;;;;4954132;28;20320;-68
2022/05/28 00:09:52;;;;;;;;;;;15.80;92.70;;;;;;4954120;28;19906;-68
2022/05/28 00:12:18;;;;;;;;;;;15.90;92.60;;;;;;4954403;28;20317;-68
2022/05/28 00:14:45;;;;;;;;;;;16.00;92.60;;;;;;4953078;28;19942;-68
2022/05/28 00:17:12;;;;;;;;;;;16.00;92.50;;;;;;4954348;28;19966;-69
2022/05/28 00:19:39;;;;;;;;;;;16.00;92.40;;;;;;4954009;28;19907;-67
2022/05/28 00:22:05;;;;;;;;;;;16.10;92.30;;;;;;4953812;28;19997;-67
2022/05/28 00:24:32;;;;;;;;;;;16.10;92.20;;;;;;4953764;28;20308;-67
2022/05/28 00:26:58;;;;;;;;;;;16.20;92.00;;;;;;4953953;28;19997;-67
2022/05/28 00:29:25;;;;;;;;;;;16.20;92.00;;;;;;4953882;28;19961;-69
2022/05/28 00:31:52;;;;;;;;;;;16.20;92.10;;;;;;4953735;28;19948;-68
2022/05/28 00:34:19;;;;;;;;;;;16.20;91.70;;;;;;4954029;28;19954;-68
2022/05/28 00:36:45;;;;;;;;;;;16.30;91.40;;;;;;4953908;28;19906;-69
2022/05/28 00:39:12;;;;;;;;;;;16.30;91.20;;;;;;4953807;28;19915;-69
2022/05/28 00:41:38;;;;;;;;;;;16.30;91.10;;;;;;4953926;28;19913;-68
2022/05/28 00:44:05;;;;;;;;;;;16.40;90.90;;;;;;4953506;28;19914;-68
2022/05/28 00:46:32;;;;;;;;;;;16.40;90.70;;;;;;4954733;28;19907;-66
2022/05/28 00:49:00;;;;;;;;;;;16.50;90.60;;;;;;4956247;28;19912;-67
2022/05/28 00:51:30;;;;;;;;;;;16.50;90.20;;;;;;4957058;28;19907;-67
2022/05/28 00:53:59;;;;;;;;;;;16.50;89.90;;;;;;4954719;28;19913;-68
2022/05/28 00:56:27;;;;;;;;;;;16.60;89.60;;;;;;4955605;28;19906;-68
2022/05/28 00:58:53;;;;;;;;;;;16.60;89.80;;;;;;4957095;28;19966;-68
2022/05/28 01:01:21;;;;;;;;;;;16.60;89.60;;;;;;4955831;28;20391;-68
2022/05/28 01:04:03;;;;;;;;;;;16.70;89.30;;;;;;4955507;28;20459;-68
2022/05/28 01:06:36;;;;;;;;;;;16.70;89.00;;;;;;4957098;28;19918;-68
2022/05/28 01:09:14;;;;;;;;;;;16.70;88.80;;;;;;4956009;28;19906;-68
2022/05/28 01:11:44;;;;;;;;;;;16.70;88.50;;;;;;4955630;28;20296;-68
2022/05/28 01:14:16;;;;;;;;;;;16.80;87.80;;;;;;4955550;28;19985;-68
2022/05/28 01:16:49;;;;;;;;;;;16.80;87.80;;;;;;4956949;28;20416;-68
2022/05/28 01:19:21;;;;;;;;;;;16.80;87.50;;;;;;4956819;28;19993;-68
2022/05/28 01:22:23;;;;;;;;;;;16.90;87.20;;;;;;4956704;28;19907;-68
2022/05/28 01:24:58;;;;;;;;;;;16.90;86.90;;;;;;4935136;29;19915;-68
2022/05/28 01:27:34;;;;;;;;;;;17.00;86.70;;;;;;4953809;28;19907;-67
2022/05/28 01:30:02;;;;;;;;;;;17.00;86.60;;;;;;4939189;28;19925;-67
2022/05/28 01:32:31;;;;;;;;;;;17.00;86.40;;;;;;4955504;28;19906;-68
2022/05/28 01:34:58;;;;;;;;;;;17.00;86.00;;;;;;4955305;28;19954;-67
2022/05/28 01:37:25;;;;;;;;;;;17.00;86.00;;;;;;4955193;28;19906;-68
2022/05/28 01:39:51;;;;;;;;;;;17.10;86.00;;;;;;4955175;28;19906;-68
2022/05/28 01:42:18;;;;;;;;;;;17.10;85.20;;;;;;4954203;28;19918;-68
2022/05/28 01:44:45;;;;;;;;;;;17.10;84.20;;;;;;4954352;28;20276;-68
2022/05/28 01:47:12;;;;;;;;;;;17.10;83.40;;;;;;4939216;29;19906;-68
2022/05/28 01:49:38;;;;;;;;;;;17.10;83.10;;;;;;4956362;28;20005;-68
2022/05/28 01:52:05;;;;;;;;;;;17.10;82.80;;;;;;4956180;28;20014;-68
2022/05/28 01:54:36;;;;;;;;;;;17.10;82.80;;;;;;4955071;28;19907;-68
2022/05/28 01:57:02;;;;;;;;;;;17.10;82.60;;;;;;4954452;28;19955;-68
2022/05/28 01:59:31;;;;;;;;;;;17.20;81.80;;;;;;4954975;28;19906;-69
2022/05/28 02:01:58;;;;;;;;;;;17.20;81.90;;;;;;4954927;28;19906;-68
2022/05/28 02:04:24;;;;;;;;;;;17.20;81.30;;;;;;4954759;28;19914;-68
2022/05/28 02:06:51;;;;;;;;;;;17.20;81.30;;;;;;4956103;28;19968;-68
2022/05/28 02:09:18;;;;;;;;;;;17.30;80.90;;;;;;4955905;28;19907;-68
2022/05/28 02:12:03;;;;;;;;;;;17.30;81.10;;;;;;4938717;29;20384;-68
2022/05/28 02:14:48;;;;;;;;;;;17.30;81.00;;;;;;4955695;28;20270;-68
2022/05/28 02:17:29;;;;;;;;;;;17.40;80.90;;;;;;4954591;28;20337;-68
2022/05/28 02:20:11;;;;;;;;;;;17.40;81.00;;;;;;4954868;28;19906;-68
2022/05/28 02:22:43;;;;;;;;;;;17.50;80.80;;;;;;4954429;28;20289;-68
2022/05/28 02:25:11;;;;;;;;;;;17.40;80.50;;;;;;4955248;28;19965;-68
2022/05/28 02:27:38;;;;;;;;;;;17.40;80.40;;;;;;4954212;28;19913;-68
2022/05/28 02:30:05;;;;;;;;;;;17.40;80.60;;;;;;4954206;28;19958;-69
2022/05/28 02:32:31;;;;;;;;;;;17.50;80.30;;;;;;4953297;28;20273;-69
2022/05/28 02:34:58;;;;;;;;;;;17.50;80.70;;;;;;4955565;28;20368;-68
2022/05/28 02:37:25;;;;;;;;;;;17.50;80.40;;;;;;4955225;28;19997;-68
2022/05/28 02:39:51;;;;;;;;;;;17.60;80.30;;;;;;4954103;28;20001;-68
2022/05/28 02:42:18;;;;;;;;;;;17.70;79.80;;;;;;4955379;28;20357;-68
2022/05/28 02:44:45;;;;;;;;;;;17.60;80.00;;;;;;4953786;28;19914;-68
2022/05/28 02:47:11;;;;;;;;;;;17.60;80.70;;;;;;4937904;28;20273;-68
2022/05/28 02:49:38;;;;;;;;;;;17.60;81.00;;;;;;4937923;28;20029;-68
2022/05/28 02:52:05;;;;;;;;;;;17.60;81.40;;;;;;4937946;28;19921;-68
2022/05/28 02:54:31;;;;;;;;;;;17.70;81.50;;;;;;4954903;28;19906;-68
2022/05/28 02:56:58;;;;;;;;;;;17.70;81.80;;;;;;4937499;28;19984;-69
2022/05/28 02:59:24;;;;;;;;;;;17.70;81.60;;;;;;4953838;28;19906;-68
2022/05/28 03:01:51;;;;;;;;;;;17.70;81.60;;;;;;4953686;28;20277;-68
2022/05/28 03:04:18;;;;;;;;;;;17.70;81.50;;;;;;4937601;28;20282;-68
2022/05/28 03:06:44;;;;;;;;;;;17.70;81.50;;;;;;4954004;28;19914;-69
2022/05/28 03:09:11;;;;;;;;;;;17.70;82.00;;;;;;4954652;28;19937;-68
2022/05/28 03:11:38;;;;;;;;;;;17.70;82.20;;;;;;4954969;28;19906;-68
2022/05/28 03:14:04;;;;;;;;;;;17.70;82.10;;;;;;4954747;28;19989;-68
2022/05/28 03:16:31;;;;;;;;;;;17.70;82.10;;;;;;4953664;28;19906;-68
2022/05/28 03:18:57;;;;;;;;;;;17.70;82.10;;;;;;4955123;28;20309;-68
2022/05/28 03:21:24;;;;;;;;;;;17.80;82.00;;;;;;4954917;28;19957;-67
2022/05/28 03:23:50;;;;;;;;;;;17.80;81.70;;;;;;4953453;28;19920;-68
2022/05/28 03:26:18;;;;;;;;;;;17.80;81.70;;;;;;4954240;28;19907;-69
2022/05/28 03:28:45;;;;;;;;;;;17.80;81.40;;;;;;4954530;28;19906;-68
2022/05/28 03:31:11;;;;;;;;;;;17.80;81.10;;;;;;4953347;28;19914;-68
2022/05/28 03:33:38;;;;;;;;;;;17.80;81.20;;;;;;4954746;28;19906;-69
2022/05/28 03:36:05;;;;;;;;;;;17.80;81.00;;;;;;4954246;28;19913;-69
2022/05/28 03:38:32;;;;;;;;;;;17.80;80.50;;;;;;4953523;28;19913;-68
2022/05/28 03:41:01;;;;;;;;;;;17.80;79.90;;;;;;4953304;28;20374;-68
2022/05/28 03:43:28;;;;;;;;;;;17.90;79.60;;;;;;4954533;28;19922;-69
2022/05/28 03:45:54;;;;;;;;;;;17.90;79.00;;;;;;4953310;28;19918;-66
2022/05/28 03:48:21;;;;;;;;;;;18.00;79.30;;;;;;4953088;28;20386;-66
2022/05/28 03:50:48;;;;;;;;;;;18.00;78.50;;;;;;4954330;28;20257;-66
2022/05/28 03:53:15;;;;;;;;;;;18.00;78.00;;;;;;4953301;28;19913;-66
2022/05/28 03:55:42;;;;;;;;;;;18.00;78.10;;;;;;4954474;28;19913;-68
2022/05/28 03:58:08;;;;;;;;;;;18.00;79.20;;;;;;4936823;28;19919;-67
2022/05/28 04:00:35;;;;;;;;;;;18.00;77.60;;;;;;4953342;28;20005;-67
2022/05/28 04:03:02;;;;;;;;;;;17.90;76.40;;;;;;4953161;29;20013;-67
2022/05/28 04:05:28;;;;;;;;;;;18.00;77.00;;;;;;4954464;28;19912;-67
2022/05/28 04:07:55;;;;;;;;;;;17.90;76.00;;;;;;4952875;28;19906;-67
2022/05/28 04:10:21;;;;;;;;;;;17.90;76.10;;;;;;4954113;28;20023;-67
2022/05/28 04:12:48;;;;;;;;;;;17.90;75.70;;;;;;4951451;28;19918;-67
2022/05/28 04:15:15;;;;;;;;;;;17.80;75.40;;;;;;4953719;28;19912;-67
2022/05/28 04:17:41;;;;;;;;;;;17.80;75.00;;;;;;4951111;28;19911;-66
2022/05/28 04:20:08;;;;;;;;;;;17.80;75.60;;;;;;4953818;28;19946;-66
2022/05/28 04:22:35;;;;;;;;;;;17.90;74.90;;;;;;4987691;28;19962;-66
2022/05/28 04:25:01;;;;;;;;;;;17.90;74.80;;;;;;4986466;28;19918;-66
2022/05/28 04:27:28;;;;;;;;;;;17.90;74.90;;;;;;4956945;28;20238;-66
2022/05/28 04:29:54;;;;;;;;;;;17.90;74.50;;;;;;4956584;28;20341;-66
2022/05/28 04:32:21;;;;;;;;;;;17.90;74.50;;;;;;4953859;28;20296;-66
2022/05/28 04:34:47;;;;;;;;;;;17.90;74.90;;;;;;4957280;28;20421;-66
2022/05/28 04:37:14;;;;;;;;;;;17.90;74.40;;;;;;4957351;28;19906;-66
2022/05/28 04:39:41;;;;;;;;;;;17.90;73.90;;;;;;4957550;28;19921;-66
2022/05/28 04:42:07;;;;;;;;;;;17.90;74.00;;;;;;4957545;28;19921;-66
2022/05/28 04:44:34;;;;;;;;;;;17.90;74.50;;;;;;4957407;28;19914;-66
2022/05/28 04:47:00;;;;;;;;;;;18.00;73.80;;;;;;4957471;28;19914;-66
2022/05/28 04:49:27;;;;;;;;;;;18.00;73.60;;;;;;4988425;28;20364;-66
2022/05/28 04:51:53;;;;;;;;;;;18.00;72.10;;;;;;4957446;28;19906;-66
2022/05/28 04:54:20;;;;;;;;;;;18.00;72.60;;;;;;4988428;28;20009;-66
2022/05/28 04:56:47;;;;;;;;;;;18.00;73.40;;;;;;4988076;28;19921;-66
2022/05/28 04:59:13;;;;;;;;;;;18.00;73.00;;;;;;4957291;28;20005;-65
2022/05/28 05:01:40;;;;;;;;;;;17.90;72.80;;;;;;4988149;28;19993;-66
2022/05/28 05:04:06;;;;;;;;;;;17.90;72.60;;;;;;4955848;28;19962;-66
2022/05/28 05:06:33;;;;;;;;;;;17.90;72.30;;;;;;4957249;28;19969;-65
2022/05/28 05:08:59;;;;;;;;;;;17.90;72.10;;;;;;4955788;28;19917;-66
2022/05/28 05:11:26;;;;;;;;;;;17.90;72.10;;;;;;4957054;28;19937;-66
2022/05/28 05:13:52;;;;;;;;;;;17.90;72.20;;;;;;4956978;28;20277;-66
2022/05/28 05:16:19;;;;;;;;;;;17.90;72.40;;;;;;4956673;28;20365;-66
2022/05/28 05:18:46;;;;;;;;;;;17.80;72.40;;;;;;4955526;28;20310;-66
2022/05/28 05:21:12;;;;;;;;;;;17.80;72.40;;;;;;4956460;28;19906;-66
2022/05/28 05:23:42;;;;;;;;;;;17.80;72.60;;;;;;4956758;28;19921;-66
2022/05/28 05:26:10;;;;;;;;;;;17.80;72.40;;;;;;4955502;28;19954;-66
2022/05/28 05:28:36;;;;;;;;;;;17.80;72.40;;;;;;4956685;28;19906;-66
2022/05/28 05:31:03;;;;;;;;;;;17.80;72.30;;;;;;4956471;28;19960;-66
2022/05/28 05:33:29;;;;;;;;;;;17.80;72.20;;;;;;4956809;28;19921;-66
2022/05/28 05:35:56;;;;;;;;;;;17.80;72.30;;;;;;4956664;28;19906;-66
2022/05/28 05:38:22;;;;;;;;;;;17.90;72.10;;;;;;4956702;28;20042;-66
2022/05/28 05:40:50;;;;;;;;;;;17.90;72.50;;;;;;4956636;28;19906;-66
2022/05/28 05:43:17;;;;;;;;;;;18.00;72.30;;;;;;4954986;28;20009;-66
2022/05/28 05:45:50;;;;;;;;;;;18.00;71.50;;;;;;4955125;28;19906;-66
2022/05/28 05:48:17;;;;;;;;;;;18.00;71.40;;;;;;4956355;28;19951;-66
2022/05/28 05:50:43;;;;;;;;;;;18.00;71.50;;;;;;4956135;28;19907;-66
2022/05/28 05:53:10;;;;;;;;;;;17.90;72.50;;;;;;4955471;28;19911;-66
2022/05/28 05:55:37;;;;;;;;;;;17.80;72.20;;;;;;4956100;28;19906;-66
2022/05/28 05:58:04;;;;;;;;;;;17.80;72.40;;;;;;4955834;28;19921;-66
2022/05/28 06:00:31;;;;;;;;;;;17.80;72.10;;;;;;4954872;28;19933;-66
2022/05/28 06:02:57;;;;;;;;;;;17.80;71.70;;;;;;4954887;28;20281;-66
2022/05/28 06:05:24;;;;;;;;;;;17.90;71.70;;;;;;4954829;28;20255;-66
2022/05/28 06:07:50;;;;;;;;;;;17.80;72.00;;;;;;4956035;28;19906;-66
2022/05/28 06:10:17;;;;;;;;;;;17.80;71.50;;;;;;4955668;28;19962;-65
2022/05/28 06:12:43;;;;;;;;;;;17.80;71.50;;;;;;4956093;28;20234;-65
2022/05/28 06:15:10;;;;;;;;;;;17.80;71.70;;;;;;4955704;28;20281;-65
2022/05/28 06:17:37;;;;;;;;;;;17.80;71.20;;;;;;4954366;28;20254;-67
2022/05/28 06:20:04;;;;;;;;;;;17.80;71.20;;;;;;4955419;28;19929;-66
2022/05/28 06:22:30;;;;;;;;;;;17.80;71.20;;;;;;4955670;28;20390;-66
2022/05/28 06:24:59;;;;;;;;;;;17.80;71.30;;;;;;4955145;28;19922;-66
2022/05/28 06:27:26;;;;;;;;;;;17.70;71.60;;;;;;4955765;28;19986;-66
2022/05/28 06:29:52;;;;;;;;;;;17.70;72.30;;;;;;4953804;28;20380;-66
2022/05/28 06:32:19;;;;;;;;;;;17.70;73.40;;;;;;4955432;28;20016;-66
2022/05/28 06:34:46;;;;;;;;;;;17.60;74.60;;;;;;4955320;28;19954;-66
2022/05/28 06:37:13;;;;;;;;;;;17.50;75.70;;;;;;4955312;28;20365;-66
2022/05/28 06:39:39;;;;;;;;;;;17.40;75.90;;;;;;4953834;28;19910;-66
2022/05/28 06:42:06;;;;;;;;;;;17.30;76.10;;;;;;4955852;28;20321;-66
2022/05/28 06:44:33;;;;;;;;;;;17.30;75.80;;;;;;4951718;28;19922;-66
2022/05/28 06:46:59;;;;;;;;;;;17.30;75.30;;;;;;4953913;28;19977;-66
2022/05/28 06:49:26;;;;;;;;;;;17.30;75.30;;;;;;4955031;28;20253;-66
2022/05/28 06:51:52;;;;;;;;;;;17.30;75.30;;;;;;4955380;28;19985;-66
2022/05/28 06:54:19;;;;;;;;;;;17.30;74.60;;;;;;4953571;28;20309;-65
2022/05/28 06:56:46;;;;;;;;;;;17.30;74.10;;;;;;4954757;28;20112;-66
2022/05/28 06:59:12;;;;;;;;;;;17.30;74.40;;;;;;4954975;28;19917;-66
2022/05/28 07:01:40;;;;;;;;;;;17.30;74.70;;;;;;4954890;28;20258;-66
2022/05/28 07:04:06;;;;;;;;;;;17.30;74.10;;;;;;4953287;28;19914;-66
2022/05/28 07:06:34;;;;;;;;;;;17.20;73.60;;;;;;4953400;28;20001;-66
2022/05/28 07:09:00;;;;;;;;;;;17.30;73.50;;;;;;4954853;28;19906;-66
2022/05/28 07:11:27;;;;;;;;;;;17.20;73.60;;;;;;4953213;28;20061;-66
2022/05/28 07:13:54;;;;;;;;;;;17.20;73.70;;;;;;4954685;28;20388;-66
2022/05/28 07:16:20;;;;;;;;;;;17.20;73.10;;;;;;4954352;28;19918;-66
2022/05/28 07:18:47;;;;;;;;;;;17.20;73.10;;;;;;4953265;28;19993;-66
2022/05/28 07:21:13;;;;;;;;;;;17.20;72.40;;;;;;4954613;28;19962;-66
2022/05/28 07:23:40;;;;;;;;;;;17.20;72.70;;;;;;4954208;28;19950;-65
2022/05/28 07:26:07;;;;;;;;;;;17.20;72.80;;;;;;4954289;28;19910;-66
2022/05/28 07:28:34;;;;;;;;;;;17.20;72.50;;;;;;4954285;28;20246;-66
2022/05/28 07:31:05;;;;;;;;;;;17.20;72.30;;;;;;4954341;28;19922;-66
2022/05/28 07:33:33;;;;;;;;;;;17.20;72.50;;;;;;4935943;29;19906;-66
2022/05/28 07:35:59;;;;;;;;;;;17.20;72.90;;;;;;4954059;28;20316;-66
2022/05/28 07:38:26;;;;;;;;;;;17.10;73.00;;;;;;4954241;28;19914;-66
2022/05/28 07:40:53;;;;;;;;;;;17.10;72.80;;;;;;4954314;28;20281;-66
2022/05/28 07:43:19;;;;;;;;;;;17.10;72.70;;;;;;4954371;28;19953;-65
2022/05/28 07:45:46;;;;;;;;;;;17.10;72.40;;;;;;4954306;28;19906;-66
2022/05/28 07:48:13;;;;;;;;;;;17.10;72.50;;;;;;4953995;28;19913;-65
2022/05/28 07:50:40;;;;;;;;;;;17.00;72.70;;;;;;4952945;28;20366;-65
2022/05/28 07:53:07;;;;;;;;;;;17.00;73.00;;;;;;4954270;28;20329;-65
2022/05/28 07:55:33;;;;;;;;;;;17.00;73.10;;;;;;4954045;28;19913;-66
2022/05/28 07:58:10;;;;;;;;;;;17.00;73.20;;;;;;4957896;28;20001;-66
2022/05/28 08:00:43;;;;;;;;;;;17.00;73.00;;;;;;4957752;28;19913;-66
2022/05/28 08:03:10;;;;;;;;;;;17.00;73.20;;;;;;4958508;28;19914;-66
2022/05/28 08:05:36;;;;;;;;;;;17.00;73.00;;;;;;4958114;28;20389;-66
2022/05/28 08:08:03;;;;;;;;;;;17.00;73.00;;;;;;4958063;28;19913;-66
2022/05/28 08:10:30;;;;;;;;;;;17.00;73.10;;;;;;4958048;28;19910;-66
2022/05/28 08:13:00;;;;;;;;;;;17.00;73.10;;;;;;4956519;28;20205;-66
2022/05/28 08:15:27;;;;;;;;;;;16.90;73.00;;;;;;4958069;28;19933;-66
2022/05/28 08:17:53;;;;;;;;;;;16.90;73.50;;;;;;4957797;28;19918;-66
2022/05/28 08:23:08;;;;;;;;;;;16.90;73.30;;;;;;4957854;28;19985;-66
2022/05/28 08:23:09;;;;;;;;;;;16.90;73.40;;;;;;4956603;28;19906;-66
2022/05/28 08:25:36;;;;;;;;;;;16.80;73.20;;;;;;4957594;28;19910;-66
2022/05/28 08:28:03;;;;;;;;;;;16.90;73.30;;;;;;4956484;28;19913;-66
2022/05/28 08:30:29;;;;;;;;;;;16.80;73.00;;;;;;4956645;29;19965;-66
2022/05/28 08:32:56;;;;;;;;;;;16.90;73.30;;;;;;4957664;28;19994;-66
2022/05/28 08:35:24;;;;;;;;;;;16.80;73.50;;;;;;4957674;28;19906;-66
2022/05/28 08:37:50;;;;;;;;;;;16.80;73.30;;;;;;4957639;28;20325;-66
2022/05/28 08:40:17;;;;;;;;;;;16.80;73.30;;;;;;4957476;28;20375;-66
2022/05/28 08:42:43;;;;;;;;;;;16.80;73.80;;;;;;4957626;28;19933;-66
2022/05/28 08:45:10;;;;;;;;;;;16.80;74.60;;;;;;4957280;28;19934;-66
2022/05/28 08:47:37;;;;;;;;;;;16.80;74.40;;;;;;4957481;28;19906;-66
2022/05/28 08:50:06;;;;;;;;;;;16.80;74.10;;;;;;4957417;28;20325;-66
2022/05/28 08:52:39;;;;;;;;;;;16.80;73.90;;;;;;4955840;28;20380;-66
2022/05/28 08:55:07;;;;;;;;;;;16.70;73.70;;;;;;4955829;28;19906;-66
2022/05/28 08:57:43;;;;;;;;;;;16.70;74.50;;;;;;4957149;28;20297;-66
2022/05/28 09:00:11;;;;;;;;;;;16.70;74.80;;;;;;4957054;28;19917;-66
2022/05/28 09:02:42;;;;;;;;;;;16.70;74.30;;;;;;4956023;28;19906;-66
2022/05/28 09:05:21;;;;;;;;;;;16.70;74.50;;;;;;4956987;28;19914;-66
2022/05/28 09:07:47;;;;;;;;;;;16.70;74.60;;;;;;4956502;28;19954;-66
2022/05/28 09:10:14;;;;;;;;;;;16.70;74.00;;;;;;4955674;28;19914;-66
2022/05/28 09:12:42;;;;;;;;;;;16.70;73.60;;;;;;4955566;28;19910;-66
2022/05/28 09:15:09;;;;;;;;;;;16.70;73.90;;;;;;4955487;28;19914;-66
2022/05/28 09:17:36;;;;;;;;;;;16.70;74.40;;;;;;4956705;28;19906;-66
2022/05/28 09:20:16;;;;;;;;;;;16.70;74.00;;;;;;4955472;28;20016;-66
2022/05/28 09:22:43;;;;;;;;;;;16.60;74.00;;;;;;4939196;28;20292;-66
2022/05/28 09:25:10;;;;;;;;;;;16.70;74.70;;;;;;4955218;28;19915;-66
2022/05/28 09:27:36;;;;;;;;;;;16.60;73.60;;;;;;4956534;28;20049;-66
2022/05/28 09:30:09;;;;;;;;;;;16.60;73.50;;;;;;4956609;28;19906;-66
2022/05/28 09:32:54;;;;;;;;;;;16.70;73.90;;;;;;4956691;28;19913;-66
2022/05/28 09:35:27;;;;;;;;;;;16.60;74.00;;;;;;4956475;28;19910;-66
2022/05/28 09:37:56;;;;;;;;;;;16.70;73.90;;;;;;4956623;28;19906;-66
2022/05/28 09:40:29;;;;;;;;;;;16.60;75.00;;;;;;4956509;28;20358;-66
2022/05/28 09:42:56;;;;;;;;;;;16.60;73.50;;;;;;4955173;28;19913;-66
2022/05/28 09:45:27;;;;;;;;;;;16.60;74.10;;;;;;4956562;28;19926;-66
2022/05/28 09:47:53;;;;;;;;;;;16.50;74.60;;;;;;4955197;28;19914;-66
2022/05/28 09:50:30;;;;;;;;;;;16.50;74.00;;;;;;4955150;28;19906;-66
2022/05/28 09:55:55;;;;;;;;;;;16.50;76.40;;;;;;4955073;28;19914;-66
2022/05/28 09:58:23;;;;;;;;;;;16.40;75.10;;;;;;4955926;28;20018;-66
2022/05/28 10:00:49;;;;;;;;;;;16.30;75.40;;;;;;4955055;28;19910;-66
2022/05/28 10:06:10;;;;;;;;;;;16.30;77.40;;;;;;4955061;28;19965;-66
2022/05/28 10:08:37;;;;;;;;;;;16.30;78.70;;;;;;4954761;28;19911;-66
2022/05/28 10:11:04;;;;;;;;;;;16.20;78.20;;;;;;4954746;28;19961;-66
2022/05/28 10:13:40;;;;;;;;;;;16.20;78.20;;;;;;4954749;28;19913;-66
2022/05/28 10:16:07;;;;;;;;;;;16.20;78.40;;;;;;4954488;28;19906;-66
2022/05/28 10:18:34;;;;;;;;;;;16.20;78.80;;;;;;4954862;28;19906;-66
2022/05/28 10:21:07;;;;;;;;;;;16.20;78.30;;;;;;4955124;28;19997;-66
2022/05/28 10:23:34;;;;;;;;;;;16.20;78.80;;;;;;4955689;28;19961;-66
2022/05/28 10:26:01;;;;;;;;;;;16.10;78.60;;;;;;4954328;28;19947;-66
2022/05/28 10:28:47;;;;;;;;;;;16.10;78.60;;;;;;4955415;28;19907;-66
2022/05/28 10:31:23;;;;;;;;;;;16.10;78.40;;;;;;4954340;28;19965;-66
2022/05/28 10:33:50;;;;;;;;;;;16.10;77.90;;;;;;4954313;28;19927;-66
2022/05/28 10:36:20;;;;;;;;;;;16.10;77.60;;;;;;4955473;28;19906;-66
2022/05/28 10:38:46;;;;;;;;;;;16.10;77.10;;;;;;4953914;28;19906;-66
2022/05/28 10:41:14;;;;;;;;;;;16.00;76.90;;;;;;4955440;28;19906;-66
2022/05/28 10:43:41;;;;;;;;;;;16.00;77.10;;;;;;4953782;28;19914;-66
2022/05/28 10:46:13;;;;;;;;;;;16.00;76.70;;;;;;4953661;28;19907;-65
2022/05/28 10:48:45;;;;;;;;;;;16.00;76.90;;;;;;4954969;28;19910;-65
2022/05/28 10:51:12;;;;;;;;;;;16.00;77.20;;;;;;4954906;28;19906;-65
2022/05/28 10:53:38;;;;;;;;;;;16.00;76.10;;;;;;4952818;28;20333;-65
2022/05/28 10:56:05;;;;;;;;;;;16.00;76.40;;;;;;4954717;28;19909;-65
2022/05/28 10:58:38;;;;;;;;;;;16.00;76.70;;;;;;4954994;28;19919;-66
2022/05/28 11:01:14;;;;;;;;;;;15.90;76.30;;;;;;4954847;28;19910;-65
2022/05/28 11:03:46;;;;;;;;;;;15.90;76.60;;;;;;4953931;28;19950;-65
2022/05/28 11:06:32;;;;;;;;;;;15.90;76.60;;;;;;4955084;28;19912;-66
2022/05/28 11:09:01;;;;;;;;;;;15.90;76.60;;;;;;4955021;28;20325;-66
2022/05/28 11:11:28;;;;;;;;;;;15.80;76.40;;;;;;4955147;28;19906;-66
2022/05/28 11:13:55;;;;;;;;;;;15.80;76.30;;;;;;4954886;28;19906;-66
2022/05/28 11:16:39;;;;;;;;;;;15.80;76.30;;;;;;4953959;28;19938;-66
2022/05/28 11:19:13;;;;;;;;;;;15.80;76.70;;;;;;4953815;28;19918;-66
2022/05/28 11:21:46;;;;;;;;;;;15.80;76.50;;;;;;4954774;28;19906;-66
2022/05/28 11:24:30;;;;;;;;;;;15.80;76.00;;;;;;4953390;28;19914;-66
2022/05/28 11:27:00;;;;;;;;;;;15.70;76.60;;;;;;4954826;28;19985;-66
2022/05/28 11:30:01;;;;;;;;;;;15.70;76.70;;;;;;4954700;28;19910;-66
2022/05/28 11:32:29;;;;;;;;;;;15.70;76.80;;;;;;4933145;29;20333;-66
2022/05/28 11:34:58;;;;;;;;;;;15.70;77.10;;;;;;4946078;28;19906;-66
2022/05/28 11:37:24;;;;;;;;;;;15.70;77.20;;;;;;4954638;28;20372;-66
2022/05/28 11:39:51;;;;;;;;;;;15.60;77.20;;;;;;4954500;28;19906;-66
2022/05/28 11:42:20;;;;;;;;;;;15.60;78.30;;;;;;4954110;28;19906;-66
2022/05/28 11:44:48;;;;;;;;;;;15.60;78.20;;;;;;4937104;28;19922;-66
2022/05/28 11:47:18;;;;;;;;;;;15.50;78.40;;;;;;4953195;28;19913;-66
2022/05/28 11:52:59;;;;;;;;;;;15.40;79.10;;;;;;4954482;28;19913;-66
2022/05/28 11:55:27;;;;;;;;;;;15.40;79.00;;;;;;4953220;28;19921;-66
2022/05/28 11:58:14;;;;;;;;;;;15.40;79.30;;;;;;4952990;28;19926;-65
2022/05/28 12:00:40;;;;;;;;;;;15.40;79.80;;;;;;4954146;28;20380;-66
2022/05/28 12:03:13;;;;;;;;;;;15.30;79.50;;;;;;4953814;28;20407;-65
2022/05/28 12:05:42;;;;;;;;;;;15.30;79.50;;;;;;4954415;28;19917;-65
2022/05/28 12:08:12;;;;;;;;;;;15.30;79.90;;;;;;4951776;28;19910;-66
2022/05/28 12:10:57;;;;;;;;;;;15.30;79.50;;;;;;4952800;28;19910;-66
2022/05/28 12:13:41;;;;;;;;;;;15.30;79.60;;;;;;4954173;28;19913;-66
2022/05/28 12:16:12;;;;;;;;;;;15.30;80.10;;;;;;4954205;28;19906;-65
2022/05/28 12:18:40;;;;;;;;;;;15.30;79.90;;;;;;4953940;28;19907;-65
2022/05/28 12:21:06;;;;;;;;;;;15.20;80.10;;;;;;4954274;28;19914;-65
2022/05/28 12:23:41;;;;;;;;;;;15.20;79.80;;;;;;4952701;28;19918;-66
2022/05/28 12:26:23;;;;;;;;;;;15.10;80.10;;;;;;4954088;28;19906;-65
2022/05/28 12:28:51;;;;;;;;;;;15.10;80.50;;;;;;4954214;28;19952;-65
2022/05/28 12:31:24;;;;;;;;;;;15.00;80.60;;;;;;4954139;28;19914;-65
2022/05/28 12:33:54;;;;;;;;;;;15.00;81.10;;;;;;4952649;28;19907;-65
2022/05/28 12:36:33;;;;;;;;;;;15.00;80.40;;;;;;4953946;28;19907;-65
2022/05/28 12:39:07;;;;;;;;;;;15.00;80.00;;;;;;4954083;28;19913;-65
2022/05/28 12:41:35;;;;;;;;;;;15.00;80.40;;;;;;4953948;28;19907;-65
2022/05/28 12:44:16;;;;;;;;;;;15.00;79.80;;;;;;4957108;28;19910;-65
2022/05/28 12:46:49;;;;;;;;;;;15.00;80.80;;;;;;4957357;28;19913;-66
2022/05/28 12:49:28;;;;;;;;;;;14.90;80.10;;;;;;4957324;28;19914;-66
2022/05/28 12:51:58;;;;;;;;;;;14.90;79.60;;;;;;4957361;28;19961;-65
2022/05/28 12:54:26;;;;;;;;;;;14.90;79.20;;;;;;4956267;28;19934;-65
2022/05/28 12:57:02;;;;;;;;;;;14.90;78.80;;;;;;4956406;28;19993;-66
2022/05/28 12:59:30;;;;;;;;;;;14.90;78.80;;;;;;4957119;28;19918;-66
2022/05/28 13:02:15;;;;;;;;;;;14.90;78.40;;;;;;4955796;28;19910;-65
2022/05/28 13:04:43;;;;;;;;;;;14.90;78.50;;;;;;4957076;28;19914;-66
2022/05/28 13:07:45;;;;;;;;;;;14.90;78.60;;;;;;4955803;28;19910;-65
2022/05/28 13:10:12;;;;;;;;;;;14.90;79.00;;;;;;4935706;29;19907;-66
2022/05/28 13:12:59;;;;;;;;;;;14.80;79.10;;;;;;4952802;28;19993;-65
2022/05/28 13:15:25;;;;;;;;;;;14.80;79.50;;;;;;4953022;28;20269;-66
2022/05/28 13:18:01;;;;;;;;;;;14.80;79.80;;;;;;4957330;28;19910;-65
2022/05/28 13:20:37;;;;;;;;;;;14.70;80.00;;;;;;4957114;28;19925;-65
2022/05/28 13:23:10;;;;;;;;;;;14.70;79.80;;;;;;4955622;28;19949;-65
2022/05/28 13:25:42;;;;;;;;;;;14.70;80.00;;;;;;4956793;28;19918;-65
2022/05/28 13:28:18;;;;;;;;;;;14.70;80.10;;;;;;4957036;28;19913;-66
2022/05/28 13:30:44;;;;;;;;;;;14.70;80.30;;;;;;4955470;28;20330;-65
2022/05/28 13:33:17;;;;;;;;;;;14.70;80.60;;;;;;4956997;28;19914;-66
2022/05/28 13:35:46;;;;;;;;;;;14.70;80.60;;;;;;4956293;28;19913;-65
2022/05/28 13:38:15;;;;;;;;;;;14.70;81.00;;;;;;4955418;28;19957;-66
2022/05/28 13:40:42;;;;;;;;;;;14.60;80.40;;;;;;4956643;28;19941;-66
2022/05/28 13:43:11;;;;;;;;;;;14.60;81.10;;;;;;4955695;28;19958;-66
2022/05/28 13:45:39;;;;;;;;;;;14.60;81.00;;;;;;4955254;28;20325;-65
2022/05/28 13:48:07;;;;;;;;;;;14.60;80.60;;;;;;4953895;28;19906;-66
2022/05/28 13:50:35;;;;;;;;;;;14.50;81.00;;;;;;4954895;28;19956;-66
2022/05/28 13:53:02;;;;;;;;;;;14.50;81.50;;;;;;4954793;28;19957;-66
2022/05/28 13:55:28;;;;;;;;;;;14.40;80.90;;;;;;4954985;28;19941;-66
2022/05/28 13:57:55;;;;;;;;;;;14.40;81.00;;;;;;4956060;28;20329;-66
2022/05/28 14:00:30;;;;;;;;;;;14.30;80.90;;;;;;4956058;28;19906;-66
2022/05/28 14:02:57;;;;;;;;;;;14.30;81.50;;;;;;4955060;29;19952;-66
2022/05/28 14:05:27;;;;;;;;;;;14.20;81.90;;;;;;4955871;28;19915;-66
2022/05/28 14:07:54;;;;;;;;;;;14.20;81.50;;;;;;4956138;28;19907;-66
2022/05/28 14:10:21;;;;;;;;;;;14.30;81.30;;;;;;4954856;28;19911;-66
2022/05/28 14:12:48;;;;;;;;;;;14.30;81.10;;;;;;4954636;28;19922;-66
2022/05/28 14:15:16;;;;;;;;;;;14.30;80.80;;;;;;4954729;28;20273;-66
2022/05/28 14:17:43;;;;;;;;;;;14.30;80.30;;;;;;4954940;28;19907;-66
2022/05/28 14:20:36;;;;;;;;;;;14.30;80.10;;;;;;4954880;28;20379;-66
2022/05/28 14:23:04;;;;;;;;;;;14.30;79.80;;;;;;4954788;28;19957;-66
2022/05/28 14:25:32;;;;;;;;;;;14.30;79.40;;;;;;4954567;28;19911;-66
2022/05/28 14:28:06;;;;;;;;;;;14.30;79.30;;;;;;4954585;28;19910;-66
2022/05/28 14:30:33;;;;;;;;;;;14.30;78.90;;;;;;4954520;28;19929;-66
2022/05/28 14:32:59;;;;;;;;;;;14.30;79.10;;;;;;4954642;28;19950;-66
2022/05/28 14:35:36;;;;;;;;;;;14.30;78.80;;;;;;4954362;28;19957;-66